Bellmore, Indiana
Current Conditions -  °F | °C
As of 8:55 PM on Monday 20 Oct 2014 (Local Time) from K4I7 Reporting Station
Broken Clouds Broken Clouds  
Wind Chill: 59°   Ceiling: 6000
Heat Index: 59°   Visibility: 10mi
Dew Point: 45°   Wind: 5mph
Humidity: 59%   Direction: 300°WNW
Pressure: 29.93"   Gusts: NA
Location:  39.76°N, 87.11°W
Report Text: K4I7 210055Z AUTO 30004KT 10SM BKN060 15/07 A2993 RMK AO2
Loading
Personal Weather Stations






























Interactive Weather Map New forecast layout! Learn more

10-Day Weather Forecast

Advertisements
Track Severe Weather on mobile